sensor_id;sensor_type;location;lat;lon;timestamp;P1;durP1;ratioP1;P2;durP2;ratioP2
13202;SDS011;6666;51.626;7.530;2023-07-30T00:00:43;4.07;;;2.67;;
13202;SDS011;6666;51.626;7.530;2023-07-30T00:03:11;5.30;;;3.28;;
13202;SDS011;6666;51.626;7.530;2023-07-30T00:05:39;4.05;;;2.80;;
13202;SDS011;6666;51.626;7.530;2023-07-30T00:08:08;4.90;;;2.70;;
13202;SDS011;6666;51.626;7.530;2023-07-30T00:10:37;4.20;;;2.72;;
13202;SDS011;6666;51.626;7.530;2023-07-30T00:13:05;3.67;;;2.30;;
13202;SDS011;6666;51.626;7.530;2023-07-30T00:15:33;5.80;;;2.90;;
13202;SDS011;6666;51.626;7.530;2023-07-30T00:18:01;5.60;;;2.60;;
13202;SDS011;6666;51.626;7.530;2023-07-30T00:20:30;3.70;;;2.53;;
13202;SDS011;6666;51.626;7.530;2023-07-30T00:22:58;3.80;;;2.60;;
13202;SDS011;6666;51.626;7.530;2023-07-30T00:25:26;6.13;;;3.25;;
13202;SDS011;6666;51.626;7.530;2023-07-30T00:27:55;7.45;;;3.00;;
13202;SDS011;6666;51.626;7.530;2023-07-30T00:30:23;4.97;;;3.15;;
13202;SDS011;6666;51.626;7.530;2023-07-30T00:32:51;3.80;;;2.40;;
13202;SDS011;6666;51.626;7.530;2023-07-30T00:35:19;4.97;;;2.60;;
13202;SDS011;6666;51.626;7.530;2023-07-30T00:37:48;5.10;;;2.30;;
13202;SDS011;6666;51.626;7.530;2023-07-30T00:40:17;5.10;;;2.53;;
13202;SDS011;6666;51.626;7.530;2023-07-30T00:42:45;4.47;;;2.20;;
13202;SDS011;6666;51.626;7.530;2023-07-30T00:45:15;5.45;;;2.70;;
13202;SDS011;6666;51.626;7.530;2023-07-30T00:47:43;3.45;;;2.15;;
13202;SDS011;6666;51.626;7.530;2023-07-30T00:50:12;6.97;;;2.53;;
13202;SDS011;6666;51.626;7.530;2023-07-30T00:52:42;3.60;;;2.30;;
13202;SDS011;6666;51.626;7.530;2023-07-30T00:55:11;2.92;;;2.20;;
13202;SDS011;6666;51.626;7.530;2023-07-30T00:57:40;6.37;;;2.20;;
13202;SDS011;6666;51.626;7.530;2023-07-30T01:00:10;3.75;;;2.38;;
13202;SDS011;6666;51.626;7.530;2023-07-30T01:02:42;4.35;;;2.20;;
13202;SDS011;6666;51.626;7.530;2023-07-30T01:05:10;8.70;;;3.10;;
13202;SDS011;6666;51.626;7.530;2023-07-30T01:07:38;5.63;;;2.28;;
13202;SDS011;6666;51.626;7.530;2023-07-30T01:10:07;4.90;;;2.25;;
13202;SDS011;6666;51.626;7.530;2023-07-30T01:12:36;5.18;;;2.40;;
13202;SDS011;6666;51.626;7.530;2023-07-30T01:15:05;6.88;;;2.40;;
13202;SDS011;6666;51.626;7.530;2023-07-30T01:17:34;6.30;;;2.80;;
13202;SDS011;6666;51.626;7.530;2023-07-30T01:20:05;7.43;;;2.70;;
13202;SDS011;6666;51.626;7.530;2023-07-30T01:22:35;8.50;;;2.47;;
13202;SDS011;6666;51.626;7.530;2023-07-30T01:25:04;3.38;;;2.50;;
13202;SDS011;6666;51.626;7.530;2023-07-30T01:27:33;5.80;;;2.00;;
13202;SDS011;6666;51.626;7.530;2023-07-30T01:30:08;2.70;;;2.10;;
13202;SDS011;6666;51.626;7.530;2023-07-30T01:32:40;6.30;;;2.40;;
13202;SDS011;6666;51.626;7.530;2023-07-30T01:35:09;4.93;;;2.72;;
13202;SDS011;6666;51.626;7.530;2023-07-30T01:37:42;5.28;;;2.20;;
13202;SDS011;6666;51.626;7.530;2023-07-30T01:40:11;4.70;;;2.50;;
13202;SDS011;6666;51.626;7.530;2023-07-30T01:42:40;8.10;;;2.58;;
13202;SDS011;6666;51.626;7.530;2023-07-30T01:45:08;5.30;;;2.10;;
13202;SDS011;6666;51.626;7.530;2023-07-30T01:47:37;5.25;;;2.05;;
13202;SDS011;6666;51.626;7.530;2023-07-30T01:50:06;4.20;;;1.90;;
13202;SDS011;6666;51.626;7.530;2023-07-30T01:52:34;5.30;;;2.50;;
13202;SDS011;6666;51.626;7.530;2023-07-30T01:55:04;8.68;;;2.50;;
13202;SDS011;6666;51.626;7.530;2023-07-30T01:57:33;2.85;;;2.10;;
13202;SDS011;6666;51.626;7.530;2023-07-30T02:00:01;4.35;;;2.20;;
13202;SDS011;6666;51.626;7.530;2023-07-30T02:02:30;4.97;;;2.25;;
13202;SDS011;6666;51.626;7.530;2023-07-30T02:04:58;6.55;;;2.03;;
13202;SDS011;6666;51.626;7.530;2023-07-30T02:07:26;4.35;;;2.00;;
13202;SDS011;6666;51.626;7.530;2023-07-30T02:09:54;5.88;;;2.60;;
13202;SDS011;6666;51.626;7.530;2023-07-30T02:12:23;5.80;;;2.50;;
13202;SDS011;6666;51.626;7.530;2023-07-30T02:14:52;4.80;;;2.25;;
13202;SDS011;6666;51.626;7.530;2023-07-30T02:17:20;8.27;;;2.60;;
13202;SDS011;6666;51.626;7.530;2023-07-30T02:19:48;6.47;;;2.25;;
13202;SDS011;6666;51.626;7.530;2023-07-30T02:22:16;3.53;;;2.13;;
13202;SDS011;6666;51.626;7.530;2023-07-30T02:24:44;6.68;;;2.40;;
13202;SDS011;6666;51.626;7.530;2023-07-30T02:27:12;8.20;;;2.00;;
13202;SDS011;6666;51.626;7.530;2023-07-30T02:29:42;6.22;;;2.30;;
13202;SDS011;6666;51.626;7.530;2023-07-30T02:32:11;7.07;;;2.10;;
13202;SDS011;6666;51.626;7.530;2023-07-30T02:34:39;6.10;;;2.30;;
13202;SDS011;6666;51.626;7.530;2023-07-30T02:37:07;6.10;;;2.45;;
13202;SDS011;6666;51.626;7.530;2023-07-30T02:39:35;7.87;;;2.47;;
13202;SDS011;6666;51.626;7.530;2023-07-30T02:42:03;3.33;;;2.40;;
13202;SDS011;6666;51.626;7.530;2023-07-30T02:44:32;4.90;;;2.33;;
13202;SDS011;6666;51.626;7.530;2023-07-30T02:47:01;3.60;;;2.50;;
13202;SDS011;6666;51.626;7.530;2023-07-30T02:49:29;6.82;;;2.20;;
13202;SDS011;6666;51.626;7.530;2023-07-30T02:51:57;4.50;;;2.15;;
13202;SDS011;6666;51.626;7.530;2023-07-30T02:54:26;7.85;;;2.42;;
13202;SDS011;6666;51.626;7.530;2023-07-30T02:56:54;2.50;;;2.10;;
13202;SDS011;6666;51.626;7.530;2023-07-30T02:59:22;6.82;;;2.50;;
13202;SDS011;6666;51.626;7.530;2023-07-30T03:01:50;3.60;;;2.15;;
13202;SDS011;6666;51.626;7.530;2023-07-30T03:04:19;5.40;;;2.05;;
13202;SDS011;6666;51.626;7.530;2023-07-30T03:06:48;5.15;;;2.30;;
13202;SDS011;6666;51.626;7.530;2023-07-30T03:09:16;8.27;;;2.93;;
13202;SDS011;6666;51.626;7.530;2023-07-30T03:11:44;11.80;;;3.20;;
13202;SDS011;6666;51.626;7.530;2023-07-30T03:14:12;12.43;;;2.60;;
13202;SDS011;6666;51.626;7.530;2023-07-30T03:16:41;3.72;;;2.10;;
13202;SDS011;6666;51.626;7.530;2023-07-30T03:19:09;3.10;;;2.20;;
13202;SDS011;6666;51.626;7.530;2023-07-30T03:21:39;5.93;;;2.60;;
13202;SDS011;6666;51.626;7.530;2023-07-30T03:24:09;6.78;;;2.47;;
13202;SDS011;6666;51.626;7.530;2023-07-30T03:26:37;8.93;;;2.80;;
13202;SDS011;6666;51.626;7.530;2023-07-30T03:29:05;8.55;;;2.47;;
13202;SDS011;6666;51.626;7.530;2023-07-30T03:31:34;4.93;;;2.70;;
13202;SDS011;6666;51.626;7.530;2023-07-30T03:34:02;9.05;;;2.55;;
13202;SDS011;6666;51.626;7.530;2023-07-30T03:36:30;5.75;;;2.50;;
13202;SDS011;6666;51.626;7.530;2023-07-30T03:39:00;4.57;;;2.60;;
13202;SDS011;6666;51.626;7.530;2023-07-30T03:41:28;3.27;;;2.33;;
13202;SDS011;6666;51.626;7.530;2023-07-30T03:43:56;4.40;;;2.45;;
13202;SDS011;6666;51.626;7.530;2023-07-30T03:46:24;5.10;;;2.60;;
13202;SDS011;6666;51.626;7.530;2023-07-30T03:48:52;5.10;;;2.30;;
13202;SDS011;6666;51.626;7.530;2023-07-30T03:51:20;6.50;;;2.33;;
13202;SDS011;6666;51.626;7.530;2023-07-30T03:53:49;4.68;;;2.40;;
13202;SDS011;6666;51.626;7.530;2023-07-30T03:56:18;4.22;;;2.55;;
13202;SDS011;6666;51.626;7.530;2023-07-30T03:58:47;4.50;;;2.40;;
13202;SDS011;6666;51.626;7.530;2023-07-30T04:01:15;5.82;;;2.22;;
13202;SDS011;6666;51.626;7.530;2023-07-30T04:03:43;7.27;;;2.30;;
13202;SDS011;6666;51.626;7.530;2023-07-30T04:06:12;4.70;;;2.80;;
13202;SDS011;6666;51.626;7.530;2023-07-30T04:08:40;8.13;;;3.15;;
13202;SDS011;6666;51.626;7.530;2023-07-30T04:11:08;7.60;;;2.40;;
13202;SDS011;6666;51.626;7.530;2023-07-30T04:13:37;4.82;;;2.72;;
13202;SDS011;6666;51.626;7.530;2023-07-30T04:16:07;5.07;;;2.60;;
13202;SDS011;6666;51.626;7.530;2023-07-30T04:18:35;4.10;;;2.30;;
13202;SDS011;6666;51.626;7.530;2023-07-30T04:21:03;8.65;;;2.45;;
13202;SDS011;6666;51.626;7.530;2023-07-30T04:23:31;5.70;;;2.40;;
13202;SDS011;6666;51.626;7.530;2023-07-30T04:26:00;5.70;;;2.33;;
13202;SDS011;6666;51.626;7.530;2023-07-30T04:28:28;6.57;;;2.92;;
13202;SDS011;6666;51.626;7.530;2023-07-30T04:30:57;9.80;;;3.30;;
13202;SDS011;6666;51.626;7.530;2023-07-30T04:33:26;8.65;;;4.53;;
13202;SDS011;6666;51.626;7.530;2023-07-30T04:35:55;11.10;;;4.78;;
13202;SDS011;6666;51.626;7.530;2023-07-30T04:38:23;6.18;;;2.67;;
13202;SDS011;6666;51.626;7.530;2023-07-30T04:40:52;3.25;;;2.05;;
13202;SDS011;6666;51.626;7.530;2023-07-30T04:43:20;6.67;;;3.10;;
13202;SDS011;6666;51.626;7.530;2023-07-30T04:45:53;3.03;;;1.83;;
13202;SDS011;6666;51.626;7.530;2023-07-30T04:48:23;5.10;;;3.20;;
13202;SDS011;6666;51.626;7.530;2023-07-30T04:50:51;5.40;;;2.10;;
13202;SDS011;6666;51.626;7.530;2023-07-30T04:53:19;4.60;;;1.95;;
13202;SDS011;6666;51.626;7.530;2023-07-30T04:55:48;6.47;;;2.35;;
13202;SDS011;6666;51.626;7.530;2023-07-30T04:58:22;5.72;;;2.40;;
13202;SDS011;6666;51.626;7.530;2023-07-30T05:00:50;10.73;;;2.40;;
13202;SDS011;6666;51.626;7.530;2023-07-30T05:03:18;4.75;;;2.05;;
13202;SDS011;6666;51.626;7.530;2023-07-30T05:05:48;4.07;;;2.10;;
13202;SDS011;6666;51.626;7.530;2023-07-30T05:08:16;3.65;;;2.10;;
13202;SDS011;6666;51.626;7.530;2023-07-30T05:10:44;5.05;;;1.98;;
13202;SDS011;6666;51.626;7.530;2023-07-30T05:13:12;6.60;;;1.97;;
13202;SDS011;6666;51.626;7.530;2023-07-30T05:15:40;4.53;;;2.17;;
13202;SDS011;6666;51.626;7.530;2023-07-30T05:18:08;7.63;;;2.45;;
13202;SDS011;6666;51.626;7.530;2023-07-30T05:20:36;4.03;;;1.80;;
13202;SDS011;6666;51.626;7.530;2023-07-30T05:23:06;3.20;;;1.70;;
13202;SDS011;6666;51.626;7.530;2023-07-30T05:25:34;4.95;;;2.00;;
13202;SDS011;6666;51.626;7.530;2023-07-30T05:28:02;7.60;;;2.45;;
13202;SDS011;6666;51.626;7.530;2023-07-30T05:30:31;7.53;;;1.80;;
13202;SDS011;6666;51.626;7.530;2023-07-30T05:32:59;5.75;;;1.80;;
13202;SDS011;6666;51.626;7.530;2023-07-30T05:35:27;7.63;;;2.70;;
13202;SDS011;6666;51.626;7.530;2023-07-30T05:37:59;13.57;;;4.70;;
13202;SDS011;6666;51.626;7.530;2023-07-30T05:40:28;7.70;;;3.22;;
13202;SDS011;6666;51.626;7.530;2023-07-30T05:42:56;9.20;;;4.47;;
13202;SDS011;6666;51.626;7.530;2023-07-30T05:45:27;9.40;;;3.25;;
13202;SDS011;6666;51.626;7.530;2023-07-30T05:47:56;7.78;;;3.30;;
13202;SDS011;6666;51.626;7.530;2023-07-30T05:50:24;9.63;;;3.95;;
13202;SDS011;6666;51.626;7.530;2023-07-30T05:52:52;11.90;;;3.45;;
13202;SDS011;6666;51.626;7.530;2023-07-30T05:55:20;9.13;;;3.20;;
13202;SDS011;6666;51.626;7.530;2023-07-30T05:57:50;8.38;;;4.10;;
13202;SDS011;6666;51.626;7.530;2023-07-30T06:00:19;17.35;;;3.92;;
13202;SDS011;6666;51.626;7.530;2023-07-30T06:02:47;11.33;;;4.10;;
13202;SDS011;6666;51.626;7.530;2023-07-30T06:05:16;7.00;;;3.40;;
13202;SDS011;6666;51.626;7.530;2023-07-30T06:07:44;11.98;;;3.10;;
13202;SDS011;6666;51.626;7.530;2023-07-30T06:10:12;6.90;;;2.83;;
13202;SDS011;6666;51.626;7.530;2023-07-30T06:12:40;6.85;;;3.20;;
13202;SDS011;6666;51.626;7.530;2023-07-30T06:15:10;9.30;;;3.20;;
13202;SDS011;6666;51.626;7.530;2023-07-30T06:17:38;8.43;;;2.70;;
13202;SDS011;6666;51.626;7.530;2023-07-30T06:20:07;12.90;;;3.50;;
13202;SDS011;6666;51.626;7.530;2023-07-30T06:22:36;14.13;;;3.80;;
13202;SDS011;6666;51.626;7.530;2023-07-30T06:25:05;7.43;;;2.70;;
13202;SDS011;6666;51.626;7.530;2023-07-30T06:27:33;8.73;;;2.75;;
13202;SDS011;6666;51.626;7.530;2023-07-30T06:30:01;9.65;;;2.65;;
13202;SDS011;6666;51.626;7.530;2023-07-30T06:32:31;10.25;;;4.72;;
13202;SDS011;6666;51.626;7.530;2023-07-30T06:34:59;7.65;;;3.53;;
13202;SDS011;6666;51.626;7.530;2023-07-30T06:37:29;8.43;;;3.50;;
13202;SDS011;6666;51.626;7.530;2023-07-30T06:39:57;12.15;;;3.90;;
13202;SDS011;6666;51.626;7.530;2023-07-30T06:42:25;11.02;;;2.97;;
13202;SDS011;6666;51.626;7.530;2023-07-30T06:44:53;10.52;;;4.43;;
13202;SDS011;6666;51.626;7.530;2023-07-30T06:47:21;12.87;;;3.80;;
13202;SDS011;6666;51.626;7.530;2023-07-30T06:49:51;12.73;;;3.72;;
13202;SDS011;6666;51.626;7.530;2023-07-30T06:52:19;11.98;;;3.83;;
13202;SDS011;6666;51.626;7.530;2023-07-30T06:54:47;10.20;;;3.63;;
13202;SDS011;6666;51.626;7.530;2023-07-30T06:57:15;8.25;;;2.95;;
13202;SDS011;6666;51.626;7.530;2023-07-30T06:59:43;10.30;;;4.13;;
13202;SDS011;6666;51.626;7.530;2023-07-30T07:02:12;10.18;;;4.10;;
13202;SDS011;6666;51.626;7.530;2023-07-30T07:04:40;19.63;;;6.80;;
13202;SDS011;6666;51.626;7.530;2023-07-30T07:07:09;9.40;;;4.10;;
13202;SDS011;6666;51.626;7.530;2023-07-30T07:09:37;9.75;;;4.30;;
13202;SDS011;6666;51.626;7.530;2023-07-30T07:12:06;14.82;;;6.00;;
13202;SDS011;6666;51.626;7.530;2023-07-30T07:14:35;7.10;;;4.00;;
13202;SDS011;6666;51.626;7.530;2023-07-30T07:17:03;11.07;;;3.95;;
13202;SDS011;6666;51.626;7.530;2023-07-30T07:19:34;10.98;;;4.40;;
13202;SDS011;6666;51.626;7.530;2023-07-30T07:22:03;11.90;;;4.32;;
13202;SDS011;6666;51.626;7.530;2023-07-30T07:24:33;8.40;;;4.53;;
13202;SDS011;6666;51.626;7.530;2023-07-30T07:27:03;11.73;;;4.70;;
13202;SDS011;6666;51.626;7.530;2023-07-30T07:29:32;9.48;;;4.80;;
13202;SDS011;6666;51.626;7.530;2023-07-30T07:32:00;12.95;;;5.30;;
13202;SDS011;6666;51.626;7.530;2023-07-30T07:34:28;8.57;;;5.22;;
13202;SDS011;6666;51.626;7.530;2023-07-30T07:36:56;12.27;;;5.63;;
13202;SDS011;6666;51.626;7.530;2023-07-30T07:39:24;9.75;;;5.63;;
13202;SDS011;6666;51.626;7.530;2023-07-30T07:41:54;11.68;;;5.10;;
13202;SDS011;6666;51.626;7.530;2023-07-30T07:44:23;22.17;;;12.97;;
13202;SDS011;6666;51.626;7.530;2023-07-30T07:46:51;9.57;;;5.10;;
13202;SDS011;6666;51.626;7.530;2023-07-30T07:49:19;10.93;;;4.40;;
13202;SDS011;6666;51.626;7.530;2023-07-30T07:51:47;12.30;;;4.90;;
13202;SDS011;6666;51.626;7.530;2023-07-30T07:54:15;10.70;;;3.80;;
13202;SDS011;6666;51.626;7.530;2023-07-30T07:56:43;9.90;;;3.90;;
13202;SDS011;6666;51.626;7.530;2023-07-30T07:59:13;12.10;;;4.50;;
13202;SDS011;6666;51.626;7.530;2023-07-30T08:01:41;9.47;;;4.20;;
13202;SDS011;6666;51.626;7.530;2023-07-30T08:04:09;11.00;;;4.20;;
13202;SDS011;6666;51.626;7.530;2023-07-30T08:06:37;12.38;;;3.80;;
13202;SDS011;6666;51.626;7.530;2023-07-30T08:09:05;11.43;;;3.70;;
13202;SDS011;6666;51.626;7.530;2023-07-30T08:11:33;9.30;;;3.97;;
13202;SDS011;6666;51.626;7.530;2023-07-30T08:14:02;7.93;;;3.50;;
13202;SDS011;6666;51.626;7.530;2023-07-30T08:16:31;7.97;;;3.75;;
13202;SDS011;6666;51.626;7.530;2023-07-30T08:19:00;10.32;;;3.42;;
13202;SDS011;6666;51.626;7.530;2023-07-30T08:21:28;6.25;;;3.25;;
13202;SDS011;6666;51.626;7.530;2023-07-30T08:23:56;9.20;;;3.47;;
13202;SDS011;6666;51.626;7.530;2023-07-30T08:26:24;9.90;;;3.30;;
13202;SDS011;6666;51.626;7.530;2023-07-30T08:28:52;9.52;;;3.10;;
13202;SDS011;6666;51.626;7.530;2023-07-30T08:31:20;7.60;;;3.15;;
13202;SDS011;6666;51.626;7.530;2023-07-30T08:33:50;11.63;;;3.47;;
13202;SDS011;6666;51.626;7.530;2023-07-30T08:36:18;12.32;;;3.72;;
13202;SDS011;6666;51.626;7.530;2023-07-30T08:38:49;5.82;;;3.10;;
13202;SDS011;6666;51.626;7.530;2023-07-30T08:41:17;8.02;;;3.60;;
13202;SDS011;6666;51.626;7.530;2023-07-30T08:43:45;12.57;;;3.67;;
13202;SDS011;6666;51.626;7.530;2023-07-30T08:46:15;9.88;;;3.50;;
13202;SDS011;6666;51.626;7.530;2023-07-30T08:48:43;11.00;;;4.50;;
13202;SDS011;6666;51.626;7.530;2023-07-30T08:51:16;7.03;;;3.65;;
13202;SDS011;6666;51.626;7.530;2023-07-30T08:53:46;9.15;;;3.42;;
13202;SDS011;6666;51.626;7.530;2023-07-30T08:56:15;8.88;;;3.60;;
13202;SDS011;6666;51.626;7.530;2023-07-30T08:58:43;6.28;;;3.30;;
13202;SDS011;6666;51.626;7.530;2023-07-30T09:01:12;10.67;;;3.83;;
13202;SDS011;6666;51.626;7.530;2023-07-30T09:03:43;9.80;;;3.35;;
13202;SDS011;6666;51.626;7.530;2023-07-30T09:06:12;9.70;;;3.05;;
13202;SDS011;6666;51.626;7.530;2023-07-30T09:08:42;8.07;;;3.80;;
13202;SDS011;6666;51.626;7.530;2023-07-30T09:11:11;10.88;;;3.30;;
13202;SDS011;6666;51.626;7.530;2023-07-30T09:13:39;5.63;;;2.90;;
13202;SDS011;6666;51.626;7.530;2023-07-30T09:16:09;7.30;;;2.40;;
13202;SDS011;6666;51.626;7.530;2023-07-30T09:18:39;6.10;;;2.90;;
13202;SDS011;6666;51.626;7.530;2023-07-30T09:21:07;7.45;;;2.67;;
13202;SDS011;6666;51.626;7.530;2023-07-30T09:23:43;6.20;;;2.45;;
13202;SDS011;6666;51.626;7.530;2023-07-30T09:26:12;5.70;;;2.72;;
13202;SDS011;6666;51.626;7.530;2023-07-30T09:28:40;9.65;;;3.13;;
13202;SDS011;6666;51.626;7.530;2023-07-30T09:31:09;9.00;;;2.90;;
13202;SDS011;6666;51.626;7.530;2023-07-30T09:33:48;5.32;;;3.03;;
13202;SDS011;6666;51.626;7.530;2023-07-30T09:36:18;7.35;;;2.72;;
13202;SDS011;6666;51.626;7.530;2023-07-30T09:38:48;10.70;;;3.00;;
13202;SDS011;6666;51.626;7.530;2023-07-30T09:41:17;10.35;;;3.05;;
13202;SDS011;6666;51.626;7.530;2023-07-30T09:43:45;8.43;;;2.65;;
13202;SDS011;6666;51.626;7.530;2023-07-30T09:46:13;8.35;;;3.15;;
13202;SDS011;6666;51.626;7.530;2023-07-30T09:48:41;6.93;;;2.88;;
13202;SDS011;6666;51.626;7.530;2023-07-30T09:51:09;13.65;;;3.40;;
13202;SDS011;6666;51.626;7.530;2023-07-30T09:53:38;9.95;;;2.60;;
13202;SDS011;6666;51.626;7.530;2023-07-30T09:56:07;6.87;;;2.80;;
13202;SDS011;6666;51.626;7.530;2023-07-30T09:58:36;6.17;;;2.40;;
13202;SDS011;6666;51.626;7.530;2023-07-30T10:01:04;9.07;;;2.60;;
13202;SDS011;6666;51.626;7.530;2023-07-30T10:03:33;8.90;;;3.00;;
13202;SDS011;6666;51.626;7.530;2023-07-30T10:06:03;16.00;;;7.40;;
13202;SDS011;6666;51.626;7.530;2023-07-30T10:08:34;9.15;;;4.40;;
13202;SDS011;6666;51.626;7.530;2023-07-30T10:11:06;8.93;;;3.85;;
13202;SDS011;6666;51.626;7.530;2023-07-30T10:13:37;10.10;;;4.63;;
13202;SDS011;6666;51.626;7.530;2023-07-30T10:16:09;11.25;;;5.72;;
13202;SDS011;6666;51.626;7.530;2023-07-30T10:18:38;8.32;;;2.70;;
13202;SDS011;6666;51.626;7.530;2023-07-30T10:21:07;8.30;;;2.60;;
13202;SDS011;6666;51.626;7.530;2023-07-30T10:23:35;5.85;;;2.53;;
13202;SDS011;6666;51.626;7.530;2023-07-30T10:26:14;9.00;;;2.67;;
13202;SDS011;6666;51.626;7.530;2023-07-30T10:28:42;4.85;;;2.40;;
13202;SDS011;6666;51.626;7.530;2023-07-30T10:31:10;5.60;;;1.85;;
13202;SDS011;6666;51.626;7.530;2023-07-30T10:33:47;7.18;;;2.20;;
13202;SDS011;6666;51.626;7.530;2023-07-30T10:36:17;5.55;;;1.75;;
13202;SDS011;6666;51.626;7.530;2023-07-30T10:38:46;4.85;;;2.45;;
13202;SDS011;6666;51.626;7.530;2023-07-30T10:41:15;2.95;;;1.70;;
13202;SDS011;6666;51.626;7.530;2023-07-30T10:43:46;7.47;;;2.15;;
13202;SDS011;6666;51.626;7.530;2023-07-30T10:46:15;7.05;;;1.77;;
13202;SDS011;6666;51.626;7.530;2023-07-30T10:48:46;5.80;;;2.30;;
13202;SDS011;6666;51.626;7.530;2023-07-30T10:51:16;3.45;;;1.42;;
13202;SDS011;6666;51.626;7.530;2023-07-30T10:53:47;7.37;;;2.10;;
13202;SDS011;6666;51.626;7.530;2023-07-30T10:56:21;7.82;;;2.10;;
13202;SDS011;6666;51.626;7.530;2023-07-30T10:58:51;4.70;;;1.90;;
13202;SDS011;6666;51.626;7.530;2023-07-30T11:01:23;5.10;;;1.63;;
13202;SDS011;6666;51.626;7.530;2023-07-30T11:03:53;5.63;;;1.70;;
13202;SDS011;6666;51.626;7.530;2023-07-30T11:06:22;5.88;;;1.90;;
13202;SDS011;6666;51.626;7.530;2023-07-30T11:08:50;6.63;;;1.83;;
13202;SDS011;6666;51.626;7.530;2023-07-30T11:11:20;4.93;;;1.50;;
13202;SDS011;6666;51.626;7.530;2023-07-30T11:13:50;5.32;;;1.60;;
13202;SDS011;6666;51.626;7.530;2023-07-30T11:16:19;5.30;;;1.60;;
13202;SDS011;6666;51.626;7.530;2023-07-30T11:18:47;7.75;;;1.80;;
13202;SDS011;6666;51.626;7.530;2023-07-30T11:21:16;7.75;;;1.60;;
13202;SDS011;6666;51.626;7.530;2023-07-30T11:23:45;5.00;;;1.40;;
13202;SDS011;6666;51.626;7.530;2023-07-30T11:26:14;4.53;;;1.75;;
13202;SDS011;6666;51.626;7.530;2023-07-30T11:28:45;5.35;;;1.60;;
13202;SDS011;6666;51.626;7.530;2023-07-30T11:31:15;3.38;;;1.42;;
13202;SDS011;6666;51.626;7.530;2023-07-30T11:33:46;4.30;;;1.38;;
13202;SDS011;6666;51.626;7.530;2023-07-30T11:36:15;3.13;;;1.30;;
13202;SDS011;6666;51.626;7.530;2023-07-30T11:38:46;3.35;;;1.27;;
13202;SDS011;6666;51.626;7.530;2023-07-30T11:41:14;5.10;;;1.90;;
13202;SDS011;6666;51.626;7.530;2023-07-30T11:43:43;4.00;;;1.40;;
13202;SDS011;6666;51.626;7.530;2023-07-30T11:46:13;5.90;;;1.55;;
13202;SDS011;6666;51.626;7.530;2023-07-30T11:48:43;4.65;;;1.50;;
13202;SDS011;6666;51.626;7.530;2023-07-30T11:51:19;6.00;;;1.92;;
13202;SDS011;6666;51.626;7.530;2023-07-30T11:53:49;4.95;;;1.80;;
13202;SDS011;6666;51.626;7.530;2023-07-30T11:56:19;3.40;;;1.30;;
13202;SDS011;6666;51.626;7.530;2023-07-30T11:58:51;4.57;;;1.60;;
13202;SDS011;6666;51.626;7.530;2023-07-30T12:01:22;5.97;;;2.20;;
13202;SDS011;6666;51.626;7.530;2023-07-30T12:03:53;7.22;;;2.88;;
13202;SDS011;6666;51.626;7.530;2023-07-30T12:06:22;4.50;;;1.60;;
13202;SDS011;6666;51.626;7.530;2023-07-30T12:08:51;6.00;;;2.20;;
13202;SDS011;6666;51.626;7.530;2023-07-30T12:11:19;5.10;;;2.87;;
13202;SDS011;6666;51.626;7.530;2023-07-30T12:13:47;6.95;;;1.90;;
13202;SDS011;6666;51.626;7.530;2023-07-30T12:16:18;4.38;;;1.52;;
13202;SDS011;6666;51.626;7.530;2023-07-30T12:18:47;7.07;;;1.60;;
13202;SDS011;6666;51.626;7.530;2023-07-30T12:21:15;15.32;;;7.35;;
13202;SDS011;6666;51.626;7.530;2023-07-30T12:23:44;18.77;;;11.53;;
13202;SDS011;6666;51.626;7.530;2023-07-30T12:26:12;11.90;;;7.28;;
13202;SDS011;6666;51.626;7.530;2023-07-30T12:28:40;9.68;;;3.80;;
13202;SDS011;6666;51.626;7.530;2023-07-30T12:31:08;7.60;;;3.50;;
13202;SDS011;6666;51.626;7.530;2023-07-30T12:33:38;4.57;;;2.58;;
13202;SDS011;6666;51.626;7.530;2023-07-30T12:36:06;4.97;;;2.92;;
13202;SDS011;6666;51.626;7.530;2023-07-30T12:38:34;8.98;;;3.70;;
13202;SDS011;6666;51.626;7.530;2023-07-30T12:41:02;5.78;;;2.40;;
13202;SDS011;6666;51.626;7.530;2023-07-30T12:43:30;5.53;;;2.05;;
13202;SDS011;6666;51.626;7.530;2023-07-30T12:45:58;8.27;;;2.13;;
13202;SDS011;6666;51.626;7.530;2023-07-30T12:48:26;8.15;;;2.35;;
13202;SDS011;6666;51.626;7.530;2023-07-30T12:50:56;9.35;;;2.00;;
13202;SDS011;6666;51.626;7.530;2023-07-30T12:53:24;4.40;;;1.60;;
13202;SDS011;6666;51.626;7.530;2023-07-30T12:55:52;3.22;;;1.23;;
13202;SDS011;6666;51.626;7.530;2023-07-30T12:58:20;5.97;;;1.08;;
13202;SDS011;6666;51.626;7.530;2023-07-30T13:00:48;4.63;;;1.10;;
13202;SDS011;6666;51.626;7.530;2023-07-30T13:03:17;6.70;;;3.80;;
13202;SDS011;6666;51.626;7.530;2023-07-30T13:05:45;5.60;;;2.00;;
13202;SDS011;6666;51.626;7.530;2023-07-30T13:08:15;5.15;;;3.13;;
13202;SDS011;6666;51.626;7.530;2023-07-30T13:10:44;5.57;;;2.13;;
13202;SDS011;6666;51.626;7.530;2023-07-30T13:13:12;5.10;;;2.22;;
13202;SDS011;6666;51.626;7.530;2023-07-30T13:15:40;3.38;;;1.35;;
13202;SDS011;6666;51.626;7.530;2023-07-30T13:18:09;3.17;;;1.17;;
13202;SDS011;6666;51.626;7.530;2023-07-30T13:20:38;6.85;;;3.70;;
13202;SDS011;6666;51.626;7.530;2023-07-30T13:23:06;5.40;;;2.70;;
13202;SDS011;6666;51.626;7.530;2023-07-30T13:25:35;7.30;;;3.97;;
13202;SDS011;6666;51.626;7.530;2023-07-30T13:28:05;5.30;;;3.15;;
13202;SDS011;6666;51.626;7.530;2023-07-30T13:30:33;4.53;;;1.13;;
13202;SDS011;6666;51.626;7.530;2023-07-30T13:33:01;5.80;;;1.50;;
13202;SDS011;6666;51.626;7.530;2023-07-30T13:35:30;5.50;;;1.30;;
13202;SDS011;6666;51.626;7.530;2023-07-30T13:37:58;6.63;;;1.45;;
13202;SDS011;6666;51.626;7.530;2023-07-30T13:40:27;8.90;;;4.47;;
13202;SDS011;6666;51.626;7.530;2023-07-30T13:42:56;6.40;;;2.78;;
13202;SDS011;6666;51.626;7.530;2023-07-30T13:45:24;9.00;;;4.28;;
13202;SDS011;6666;51.626;7.530;2023-07-30T13:47:52;7.15;;;3.10;;
13202;SDS011;6666;51.626;7.530;2023-07-30T13:50:21;4.70;;;2.00;;
13202;SDS011;6666;51.626;7.530;2023-07-30T13:52:49;4.65;;;1.95;;
13202;SDS011;6666;51.626;7.530;2023-07-30T13:55:17;7.40;;;2.47;;
13202;SDS011;6666;51.626;7.530;2023-07-30T13:57:46;9.20;;;1.80;;
13202;SDS011;6666;51.626;7.530;2023-07-30T14:00:15;4.55;;;1.40;;
13202;SDS011;6666;51.626;7.530;2023-07-30T14:02:43;7.53;;;1.95;;
13202;SDS011;6666;51.626;7.530;2023-07-30T14:05:12;6.82;;;1.48;;
13202;SDS011;6666;51.626;7.530;2023-07-30T14:07:40;4.68;;;1.70;;
13202;SDS011;6666;51.626;7.530;2023-07-30T14:10:08;3.38;;;1.40;;
13202;SDS011;6666;51.626;7.530;2023-07-30T14:12:37;5.07;;;1.77;;
13202;SDS011;6666;51.626;7.530;2023-07-30T14:15:05;7.53;;;1.95;;
13202;SDS011;6666;51.626;7.530;2023-07-30T14:17:36;4.47;;;1.60;;
13202;SDS011;6666;51.626;7.530;2023-07-30T14:20:04;4.15;;;1.80;;
13202;SDS011;6666;51.626;7.530;2023-07-30T14:22:33;4.68;;;1.42;;
13202;SDS011;6666;51.626;7.530;2023-07-30T14:25:02;5.13;;;1.55;;
13202;SDS011;6666;51.626;7.530;2023-07-30T14:27:30;6.03;;;1.40;;
13202;SDS011;6666;51.626;7.530;2023-07-30T14:29:58;3.10;;;1.50;;
13202;SDS011;6666;51.626;7.530;2023-07-30T14:32:26;5.80;;;1.30;;
13202;SDS011;6666;51.626;7.530;2023-07-30T14:34:56;5.53;;;1.52;;
13202;SDS011;6666;51.626;7.530;2023-07-30T14:37:24;4.00;;;1.30;;
13202;SDS011;6666;51.626;7.530;2023-07-30T14:39:52;4.40;;;1.73;;
13202;SDS011;6666;51.626;7.530;2023-07-30T14:42:20;6.70;;;1.50;;
13202;SDS011;6666;51.626;7.530;2023-07-30T14:44:48;3.78;;;1.40;;
13202;SDS011;6666;51.626;7.530;2023-07-30T14:47:16;9.23;;;5.97;;
13202;SDS011;6666;51.626;7.530;2023-07-30T14:49:45;4.97;;;1.83;;
13202;SDS011;6666;51.626;7.530;2023-07-30T14:52:14;3.05;;;1.60;;
13202;SDS011;6666;51.626;7.530;2023-07-30T14:54:43;8.18;;;1.30;;
13202;SDS011;6666;51.626;7.530;2023-07-30T14:57:12;5.35;;;2.20;;
13202;SDS011;6666;51.626;7.530;2023-07-30T14:59:40;6.10;;;2.37;;
13202;SDS011;6666;51.626;7.530;2023-07-30T15:02:08;7.32;;;3.00;;
13202;SDS011;6666;51.626;7.530;2023-07-30T15:04:36;6.05;;;3.55;;
13202;SDS011;6666;51.626;7.530;2023-07-30T15:07:04;4.40;;;1.40;;
13202;SDS011;6666;51.626;7.530;2023-07-30T15:09:34;4.15;;;1.60;;